Погода Меритксельна неделю

Канильо, Андорра

23 - 29 июля
  • 23июля
    Сегодня
    +10°
    +23°
    Ясно и безоблачно
    ВремяПогодаТемператураВлажностьДавлениеВетер, м/сВероятность осадков
    02:00Ясно и безоблачно+11°C71 %633 мм0.5 м/с2 %
    05:00Ясно и безоблачно+13°C61 %633 мм0.8 м/с2 %
    08:00Ясно и безоблачно+13°C66 %634 мм1.1 м/с2 %
    11:00Ясно и безоблачно+17°C48 %636 мм1.6 м/с2 %
    14:00Ясно и безоблачно+21°C39 %637 мм1.8 м/с2 %
    17:00Ясно и безоблачно+23°C44 %637 мм2.2 м/с2 %
    20:00Практически безоблачно+19°C68 %636 мм1.4 м/с2 %
    23:00Облачно с прояснениями+13°C91 %635 мм0.6 м/с2 %
  • 24июля
    Среда
    +10°
    +22°
    Практически безоблачно
    ВремяПогодаТемператураВлажностьДавлениеВетер, м/сВероятность осадков
    02:00Практически безоблачно+12°C87 %633 мм0.2 м/с2 %
    05:00Ясно и безоблачно+12°C73 %633 мм0.3 м/с2 %
    08:00Ясно и безоблачно+16°C62 %634 мм0.5 м/с2 %
    11:00Практически безоблачно+18°C44 %635 мм1.3 м/с2 %
    14:00Практически безоблачно+22°C46 %635 мм2.9 м/с1 %
    17:00Ясно и безоблачно+21°C54 %635 мм2.9 м/с5 %
    20:00Ясно и безоблачно+19°C72 %634 мм1.7 м/с5 %
    23:00Практически безоблачно+12°C92 %632 мм0.8 м/с2 %
  • 25июля
    Четверг
    +11°
    +23°
    Ясно и безоблачно
    ВремяПогодаТемператураВлажностьДавлениеВетер, м/сВероятность осадков
    02:00Ясно и безоблачно+11°C80 %630 мм0.1 м/с2 %
    05:00Ясно и безоблачно+11°C67 %629 мм0.2 м/с2 %
    08:00Ясно и безоблачно+14°C61 %630 мм0.4 м/с2 %
    11:00Ясно и безоблачно+18°C40 %631 мм0.8 м/с2 %
    14:00Ясно и безоблачно+22°C42 %632 мм1.8 м/с5 %
    17:00Практически безоблачно+22°C53 %632 мм1.2 м/с18 %
    20:00Практически безоблачно+19°C68 %631 мм0.8 м/с19 %
    23:00Практически безоблачно+13°C85 %629 мм1.0 м/с2 %
  • 26июля
    Пятница
    +12°
    +22°
    Небольшая облачность, возможен дождь с грозой
    ВремяПогодаТемператураВлажностьДавлениеВетер, м/сВероятность осадков
    02:00Ясно и безоблачно+12°C87 %628 мм0.5 м/с2 %
    05:00Ясно и безоблачно+13°C87 %628 мм1.0 м/с2 %
    08:00Ясно и безоблачно+14°C85 %629 мм1.3 м/с2 %
    11:00Ясно и безоблачно+19°C58 %631 мм1.8 м/с2 %
    14:00Небольшая облачность, возможен дождь с грозой+22°C49 %632 мм2.1 м/с59 %
    17:00Небольшая облачность, возможен дождь с грозой+21°C53 %632 мм2.4 м/с72 %
    20:00Практически безоблачно+19°C55 %631 мм1.6 м/с40 %
    23:00Ясно и безоблачно+14°C70 %630 мм0.9 м/с3 %
  • 27июля
    Суббота
    +11°
    +23°
    Ясно и безоблачно
    ВремяПогодаТемператураВлажностьДавлениеВетер, м/сВероятность осадков
    02:00Ясно и безоблачно+13°C76 %630 мм0.9 м/с2 %
    05:00Ясно и безоблачно+13°C74 %630 мм1.3 м/с2 %
    08:00Ясно и безоблачно+14°C64 %630 мм1.7 м/с3 %
    11:00Практически безоблачно+18°C40 %632 мм3.3 м/с4 %
    14:00Ясно и безоблачно+22°C34 %633 мм3.8 м/с14 %
    17:00Ясно и безоблачно+22°C33 %633 мм3.3 м/с36 %
    20:00Облачно с прояснениями+19°C47 %632 мм1.5 м/с32 %
    23:00Практически безоблачно+13°C67 %631 мм1.3 м/с15 %
Мы используем cookies
Соглашаюсь